createdAt,value
2018-04-19T00:01:06.095Z,13.25
2018-04-19T00:03:43.188Z,14.25
2018-04-19T00:06:13.582Z,14.25
2018-04-19T00:08:44.180Z,13.75
2018-04-19T00:11:14.822Z,13.50
2018-04-19T00:13:45.715Z,15.00
2018-04-19T00:16:22.353Z,14.25
2018-04-19T00:18:53.476Z,13.25
2018-04-19T00:21:23.766Z,13.75
2018-04-19T00:23:55.217Z,12.25
2018-04-19T00:26:25.583Z,12.50
2018-04-19T00:28:56.136Z,13.00
2018-04-19T00:31:27.862Z,13.00
2018-04-19T00:33:58.323Z,12.00
2018-04-19T00:36:28.654Z,13.00
2018-04-19T00:39:03.254Z,12.75
2018-04-19T00:41:34.555Z,11.00
2018-04-19T00:44:05.970Z,13.25
2018-04-19T00:46:41.674Z,11.25
2018-04-19T00:49:12.055Z,10.25
2018-04-19T00:51:42.203Z,12.00
2018-04-19T00:54:12.749Z,13.00
2018-04-19T00:56:43.014Z,11.75
2018-04-19T00:59:13.516Z,11.00
2018-04-19T01:01:44.748Z,11.00
2018-04-19T01:04:14.944Z,11.00
2018-04-19T01:06:45.171Z,12.00
2018-04-19T01:09:15.367Z,10.00
2018-04-19T01:11:45.464Z,11.00
2018-04-19T01:14:15.882Z,11.25
2018-04-19T01:16:46.611Z,10.50
2018-04-19T01:22:15.581Z,10.00
2018-04-19T01:24:46.283Z,11.00
2018-04-19T01:27:16.553Z,10.00
2018-04-19T01:29:46.870Z,10.75
2018-04-19T01:32:17.439Z,9.75
2018-04-19T01:34:47.579Z,9.75
2018-04-19T01:37:17.835Z,10.00
2018-04-19T01:39:48.117Z,10.50
2018-04-19T01:42:18.664Z,9.75
2018-04-19T01:44:49.657Z,11.25
2018-04-19T01:47:20.217Z,10.00
2018-04-19T01:49:50.670Z,8.75
2018-04-19T01:52:21.039Z,9.25
2018-04-19T01:54:51.164Z,8.25
2018-04-19T01:57:21.455Z,10.00
2018-04-19T01:59:51.619Z,8.75
2018-04-19T02:02:22.903Z,10.00
2018-04-19T02:04:54.240Z,9.25
2018-04-19T02:07:26.733Z,8.75
2018-04-19T02:09:59.872Z,9.75
2018-04-19T02:12:31.172Z,10.50
2018-04-19T02:15:03.283Z,11.00
2018-04-19T02:17:34.635Z,8.75
2018-04-19T02:20:06.751Z,10.00
2018-04-19T02:22:37.082Z,9.25
2018-04-19T02:25:08.300Z,11.50
2018-04-19T02:27:38.823Z,11.00
2018-04-19T02:30:10.145Z,11.00
2018-04-19T02:32:43.869Z,10.50
2018-04-19T02:35:13.974Z,10.75
2018-04-19T02:37:44.473Z,13.00
2018-04-19T02:40:15.864Z,12.50
2018-04-19T02:42:47.206Z,11.00
2018-04-19T02:45:18.452Z,12.00
2018-04-19T02:47:49.838Z,11.75
2018-04-19T02:50:21.265Z,12.25
2018-04-19T02:52:52.669Z,13.00
2018-04-19T02:55:23.375Z,12.50
2018-04-19T02:57:54.341Z,12.50
2018-04-19T03:00:25.477Z,11.75
2018-04-19T03:02:57.524Z,13.00
2018-04-19T03:05:28.169Z,11.00
2018-04-19T03:08:00.050Z,14.25
2018-04-19T03:10:45.074Z,12.00
2018-04-19T03:13:36.172Z,11.00
2018-04-19T03:16:07.766Z,13.75
2018-04-19T03:18:39.430Z,12.00
2018-04-19T03:21:10.774Z,11.75
2018-04-19T03:23:42.076Z,11.25
2018-04-19T03:26:13.544Z,13.00
2018-04-19T03:28:44.796Z,15.00
2018-04-19T03:31:16.429Z,11.00
2018-04-19T03:33:48.914Z,13.75
2018-04-19T03:36:20.082Z,11.75
2018-04-19T03:38:51.344Z,13.75
2018-04-19T03:41:22.661Z,11.75
2018-04-19T03:43:53.972Z,12.00
2018-04-19T03:46:25.767Z,12.75
2018-04-19T03:48:57.437Z,13.25
2018-04-19T03:51:28.697Z,11.25
2018-04-19T03:53:59.975Z,12.00
2018-04-19T03:56:31.283Z,11.75
2018-04-19T03:59:13.041Z,13.00
2018-04-19T04:01:44.943Z,14.00
2018-04-19T04:04:16.525Z,15.00
2018-04-19T04:06:48.600Z,13.50
2018-04-19T04:09:20.008Z,14.00
2018-04-19T04:11:51.364Z,14.00
2018-04-19T04:14:22.733Z,14.00
2018-04-19T04:18:09.107Z,13.50
2018-04-19T04:21:19.936Z,14.00
2018-04-19T04:23:56.043Z,13.00
2018-04-19T04:26:27.363Z,15.25
2018-04-19T04:28:59.458Z,14.00
2018-04-19T04:31:31.681Z,14.00
2018-04-19T04:36:41.769Z,14.00
2018-04-19T04:39:13.235Z,14.00
2018-04-19T04:41:44.975Z,13.75
2018-04-19T04:44:20.958Z,15.00
2018-04-19T04:49:42.151Z,14.00
2018-04-19T04:52:14.872Z,14.50
2018-04-19T04:54:46.795Z,15.25
2018-04-19T04:57:19.142Z,15.25
2018-04-19T04:59:50.576Z,14.00
2018-04-19T05:02:22.428Z,15.25
2018-04-19T05:04:53.683Z,15.75
2018-04-19T05:07:27.663Z,15.75
2018-04-19T05:10:00.913Z,15.75
2018-04-19T05:12:33.389Z,15.75
2018-04-19T05:15:06.733Z,15.50
2018-04-19T05:17:44.134Z,14.00
2018-04-19T05:20:27.366Z,15.25
2018-04-19T05:22:59.459Z,15.00
2018-04-19T05:25:30.787Z,16.75
2018-04-19T05:28:02.410Z,15.00
2018-04-19T05:30:40.459Z,15.00
2018-04-19T05:33:11.959Z,14.75
2018-04-19T05:35:43.781Z,16.00
2018-04-19T05:38:17.566Z,14.75
2018-04-19T05:40:57.945Z,15.25
2018-04-19T05:43:29.776Z,15.25
2018-04-19T05:46:10.661Z,15.50
2018-04-19T05:49:56.060Z,14.25
2018-04-19T05:52:27.426Z,16.75
2018-04-19T05:54:59.038Z,16.00
2018-04-19T05:57:39.757Z,16.75
2018-04-19T06:00:16.479Z,15.00
2018-04-19T06:02:49.610Z,15.00
2018-04-19T06:05:29.240Z,13.50
2018-04-19T06:08:00.861Z,13.75
2018-04-19T06:10:36.741Z,14.00
2018-04-19T06:13:08.234Z,16.25
2018-04-19T06:15:41.189Z,15.50
2018-04-19T06:18:12.902Z,16.25
2018-04-19T06:20:50.010Z,16.00
2018-04-19T06:23:24.161Z,13.75
2018-04-19T06:25:56.915Z,14.25
2018-04-19T06:28:28.764Z,15.25
2018-04-19T06:31:01.489Z,15.00
2018-04-19T06:33:33.778Z,16.50
2018-04-19T06:36:05.466Z,14.00
2018-04-19T06:38:38.947Z,13.50
2018-04-19T06:41:13.661Z,15.00
2018-04-19T06:43:45.926Z,13.25
2018-04-19T06:46:22.922Z,13.75
2018-04-19T06:48:55.187Z,13.75
2018-04-19T06:51:31.809Z,13.25
2018-04-19T06:54:03.351Z,14.50
2018-04-19T06:56:34.860Z,13.00
2018-04-19T06:59:08.430Z,12.00
2018-04-19T07:01:40.668Z,14.00
2018-04-19T07:04:12.126Z,13.50
2018-04-19T07:06:43.446Z,14.00
2018-04-19T07:09:35.266Z,12.00
2018-04-19T07:12:07.755Z,12.00
2018-04-19T07:14:41.720Z,11.00
2018-04-19T07:17:16.557Z,11.50
2018-04-19T07:19:48.464Z,12.25
2018-04-19T07:22:19.677Z,12.75
2018-04-19T07:24:54.546Z,13.25
2018-04-19T07:27:33.707Z,10.50
2018-04-19T07:30:08.533Z,10.25
2018-04-19T07:32:42.182Z,10.25
2018-04-19T07:35:14.226Z,10.00
2018-04-19T07:37:51.161Z,11.75
2018-04-19T07:40:22.885Z,11.00
2018-04-19T07:42:55.471Z,10.25
2018-04-19T07:45:31.559Z,10.00
2018-04-19T07:48:05.293Z,8.75
2018-04-19T07:50:39.010Z,9.25
2018-04-19T07:53:10.659Z,10.00
2018-04-19T07:55:42.522Z,9.00
2018-04-19T07:58:14.187Z,9.50
2018-04-19T08:00:49.933Z,8.75
2018-04-19T08:03:24.356Z,10.00
2018-04-19T08:05:57.095Z,9.00
2018-04-19T08:08:28.018Z,7.00
2018-04-19T08:11:00.456Z,7.25
2018-04-19T08:13:33.270Z,8.00
2018-04-19T08:16:05.812Z,8.00
2018-04-19T08:18:41.097Z,8.50
2018-04-19T08:21:13.729Z,9.00
2018-04-19T08:23:54.703Z,7.25
2018-04-19T08:26:27.717Z,8.25
2018-04-19T08:29:04.727Z,9.00
2018-04-19T08:31:39.592Z,8.50
2018-04-19T08:34:11.615Z,8.75
2018-04-19T08:36:43.802Z,7.75
2018-04-19T08:39:15.247Z,8.25
2018-04-19T08:41:47.575Z,8.75
2018-04-19T08:44:19.551Z,6.75
2018-04-19T08:46:58.246Z,8.00
2018-04-19T08:49:30.928Z,6.75
2018-04-19T08:52:03.285Z,8.50
2018-04-19T08:54:34.926Z,8.00
2018-04-19T08:57:06.668Z,8.75
2018-04-19T08:59:39.357Z,7.50
2018-04-19T09:02:14.196Z,7.00
2018-04-19T09:04:50.285Z,9.00
2018-04-19T09:07:26.290Z,7.75
2018-04-19T09:10:00.526Z,8.00
2018-04-19T09:12:49.566Z,8.50
2018-04-19T09:15:26.848Z,8.75
2018-04-19T09:17:59.748Z,6.75
2018-04-19T09:20:34.157Z,8.00
2018-04-19T09:23:06.703Z,9.00
2018-04-19T09:25:38.932Z,8.25
2018-04-19T09:28:15.281Z,8.75
2018-04-19T09:30:48.675Z,7.00
2018-04-19T09:33:23.011Z,8.00
2018-04-19T09:35:54.688Z,7.75
2018-04-19T09:38:26.067Z,8.00
2018-04-19T09:40:58.115Z,8.75
2018-04-19T09:43:30.249Z,8.50
2018-04-19T09:46:02.730Z,8.00
2018-04-19T09:48:35.953Z,6.25
2018-04-19T09:51:08.630Z,7.25
2018-04-19T09:53:41.512Z,7.00
2018-04-19T09:56:13.558Z,9.00
2018-04-19T09:58:48.145Z,8.50
2018-04-19T10:01:21.735Z,8.00
2018-04-19T10:03:54.328Z,8.00
2018-04-19T10:09:25.419Z,7.00
2018-04-19T10:11:58.527Z,7.00
2018-04-19T10:14:34.082Z,8.00
2018-04-19T10:17:17.148Z,7.75
2018-04-19T10:19:49.737Z,7.50
2018-04-19T10:22:24.578Z,7.00
2018-04-19T10:27:33.235Z,7.25
2018-04-19T10:30:07.712Z,7.75
2018-04-19T10:32:43.159Z,6.25
2018-04-19T10:35:25.323Z,6.50
2018-04-19T10:37:58.789Z,5.00
2018-04-19T10:40:31.177Z,6.50
2018-04-19T10:43:04.641Z,7.00
2018-04-19T10:45:41.633Z,6.75
2018-04-19T10:48:14.622Z,5.00
2018-04-19T10:50:48.294Z,7.25
2018-04-19T10:53:23.913Z,7.00
2018-04-19T10:55:59.912Z,7.75
2018-04-19T10:58:33.761Z,6.75
2018-04-19T11:01:09.799Z,6.00
2018-04-19T11:03:42.886Z,6.25
2018-04-19T11:06:15.788Z,7.50
2018-04-19T11:08:49.683Z,5.00
2018-04-19T11:11:23.654Z,5.00
2018-04-19T11:13:57.405Z,6.00
2018-04-19T11:16:29.662Z,6.25
2018-04-19T11:19:01.288Z,7.50
2018-04-19T11:21:33.049Z,8.00
2018-04-19T11:24:05.282Z,6.75
2018-04-19T11:26:42.417Z,7.50
2018-04-19T11:29:14.601Z,6.50
2018-04-19T11:31:47.589Z,7.00
2018-04-19T11:34:23.513Z,7.00
2018-04-19T11:36:55.173Z,6.00
2018-04-19T11:39:32.253Z,6.00
2018-04-19T11:42:05.036Z,5.00
2018-04-19T11:44:37.799Z,6.25
2018-04-19T11:47:18.372Z,7.50
2018-04-19T11:50:02.162Z,6.50
2018-04-19T11:52:42.725Z,5.00
2018-04-19T11:55:16.248Z,6.75
2018-04-19T11:58:10.885Z,7.00
2018-04-19T12:00:52.803Z,5.75
2018-04-19T12:03:25.823Z,5.50
2018-04-19T12:05:57.824Z,6.50
2018-04-19T12:08:30.995Z,6.00
2018-04-19T12:11:14.864Z,8.00
2018-04-19T12:13:51.104Z,6.00
2018-04-19T12:16:28.902Z,6.50
2018-04-19T12:19:11.977Z,5.75
2018-04-19T12:21:45.683Z,5.50
2018-04-19T12:24:18.004Z,4.75
2018-04-19T12:26:50.030Z,3.00
2018-04-19T12:29:23.438Z,5.00
2018-04-19T12:31:56.704Z,5.00
2018-04-19T12:34:28.083Z,5.00
2018-04-19T12:37:01.208Z,4.50
2018-04-19T12:39:34.702Z,5.00
2018-04-19T12:42:06.785Z,4.00
2018-04-19T12:44:50.524Z,4.00
2018-04-19T12:47:26.596Z,4.00
2018-04-19T12:50:01.086Z,4.25
2018-04-19T12:52:33.795Z,4.00
2018-04-19T12:55:07.406Z,6.50
2018-04-19T12:57:39.839Z,4.00
2018-04-19T13:00:15.497Z,3.50
2018-04-19T13:02:47.180Z,6.50
2018-04-19T13:05:21.125Z,6.00
2018-04-19T13:07:53.410Z,5.00
2018-04-19T13:10:24.814Z,6.00
2018-04-19T13:12:57.540Z,6.25
2018-04-19T13:15:29.837Z,6.00
2018-04-19T13:18:04.028Z,4.00
2018-04-19T13:20:49.825Z,6.00
2018-04-19T13:23:21.943Z,5.75
2018-04-19T13:25:57.409Z,5.75
2018-04-19T13:28:29.424Z,5.00
2018-04-19T13:31:01.630Z,5.00
2018-04-19T13:33:33.814Z,6.25
2018-04-19T13:36:07.663Z,5.25
2018-04-19T13:38:40.826Z,5.00
2018-04-19T13:41:12.703Z,5.75
2018-04-19T13:43:45.834Z,5.00
2018-04-19T13:46:17.773Z,6.00
2018-04-19T13:48:50.589Z,6.00
2018-04-19T13:51:24.905Z,4.50
2018-04-19T13:53:59.330Z,5.25
2018-04-19T13:56:31.017Z,5.00
2018-04-19T13:59:02.941Z,4.00
2018-04-19T14:01:36.469Z,4.00
2018-04-19T14:04:08.134Z,5.00
2018-04-19T14:06:44.965Z,5.25
2018-04-19T14:09:17.615Z,5.75
2018-04-19T14:11:49.817Z,5.00
2018-04-19T14:14:21.625Z,5.00
2018-04-19T14:16:53.778Z,5.75
2018-04-19T14:19:26.918Z,6.00
2018-04-19T14:21:58.489Z,6.00
2018-04-19T14:24:30.511Z,5.00
2018-04-19T14:27:02.361Z,5.00
2018-04-19T14:29:34.992Z,4.00
2018-04-19T14:32:07.121Z,3.75
2018-04-19T14:34:39.028Z,3.75
2018-04-19T14:37:14.111Z,4.00
2018-04-19T14:39:48.668Z,4.00
2018-04-19T14:42:20.710Z,4.00
2018-04-19T14:44:55.199Z,3.50
2018-04-19T14:47:34.152Z,3.50
2018-04-19T14:50:06.426Z,3.00
2018-04-19T14:52:45.210Z,3.00
2018-04-19T14:55:17.734Z,4.00
2018-04-19T15:00:48.054Z,3.00
2018-04-19T15:03:20.241Z,3.00
2018-04-19T15:05:54.298Z,4.50
2018-04-19T15:08:31.975Z,3.50
2018-04-19T15:11:03.838Z,4.00
2018-04-19T15:13:37.513Z,4.00
2018-04-19T15:16:09.825Z,3.75
2018-04-19T15:18:42.294Z,4.25
2018-04-19T15:21:14.939Z,4.50
2018-04-19T15:23:54.160Z,3.75
2018-04-19T15:26:26.828Z,3.00
2018-04-19T15:29:03.867Z,3.00
2018-04-19T15:31:36.858Z,3.50
2018-04-19T15:34:10.049Z,4.00
2018-04-19T15:36:41.902Z,4.00
2018-04-19T15:39:54.286Z,3.50
2018-04-19T15:42:27.992Z,4.00
2018-04-19T15:45:00.147Z,4.00
2018-04-19T15:47:37.551Z,3.25
2018-04-19T15:50:10.056Z,3.50
2018-04-19T15:52:44.483Z,4.00
2018-04-19T15:55:17.293Z,3.50
2018-04-19T15:57:51.888Z,2.75
2018-04-19T16:00:25.327Z,3.00
2018-04-19T16:03:00.291Z,3.00
2018-04-19T16:05:32.971Z,4.25
2018-04-19T16:08:14.248Z,4.75
2018-04-19T16:10:46.229Z,5.00
2018-04-19T16:13:18.572Z,5.00
2018-04-19T16:15:54.515Z,4.00
2018-04-19T16:18:27.040Z,4.00
2018-04-19T16:21:01.887Z,4.00
2018-04-19T16:23:40.299Z,5.00
2018-04-19T16:26:13.690Z,4.50
2018-04-19T16:28:49.001Z,3.75
2018-04-19T16:31:23.653Z,3.25
2018-04-19T16:33:56.170Z,4.00
2018-04-19T16:36:29.057Z,4.50
2018-04-19T16:39:01.918Z,3.00
2018-04-19T16:41:35.803Z,4.50
2018-04-19T16:44:08.922Z,4.00
2018-04-19T16:46:41.601Z,5.00
2018-04-19T16:49:16.874Z,5.00
2018-04-19T16:52:00.406Z,4.00
2018-04-19T16:54:32.828Z,4.00
2018-04-19T16:57:04.361Z,5.00
2018-04-19T16:59:40.012Z,4.00
2018-04-19T17:02:12.231Z,3.00
2018-04-19T17:04:51.662Z,4.75
2018-04-19T17:07:26.525Z,5.00
2018-04-19T17:09:59.088Z,4.00
2018-04-19T17:12:32.246Z,5.75
2018-04-19T17:15:16.444Z,7.50
2018-04-19T17:17:51.002Z,7.00
2018-04-19T17:20:22.603Z,7.75
2018-04-19T17:22:54.143Z,6.00
2018-04-19T17:25:31.517Z,6.00
2018-04-19T17:28:04.409Z,6.25
2018-04-19T17:30:38.195Z,8.25
2018-04-19T17:33:09.888Z,5.00
2018-04-19T17:35:42.729Z,6.00
2018-04-19T17:38:14.743Z,6.00
2018-04-19T17:40:49.159Z,6.00
2018-04-19T17:43:21.963Z,6.00
2018-04-19T17:45:57.077Z,5.00
2018-04-19T17:48:28.962Z,6.00
2018-04-19T17:51:02.834Z,7.00
2018-04-19T17:53:35.027Z,5.50
2018-04-19T17:56:13.550Z,7.00
2018-04-19T17:58:55.058Z,5.00
2018-04-19T18:01:29.016Z,6.50
2018-04-19T18:04:06.662Z,7.00
2018-04-19T18:06:42.184Z,6.00
2018-04-19T18:09:16.735Z,7.00
2018-04-19T18:11:53.089Z,6.50
2018-04-19T18:14:26.574Z,7.00
2018-04-19T18:17:02.083Z,7.00
2018-04-19T18:19:35.058Z,8.75
2018-04-19T18:22:17.035Z,8.00
2018-04-19T18:24:51.567Z,8.00
2018-04-19T18:27:23.003Z,9.75
2018-04-19T18:30:05.881Z,9.00
2018-04-19T18:32:42.561Z,9.00
2018-04-19T18:35:23.021Z,8.50
2018-04-19T18:44:30.011Z,8.00
2018-04-19T18:47:01.975Z,11.00
2018-04-19T18:49:36.948Z,8.00
2018-04-19T18:52:11.231Z,9.00
2018-04-19T18:54:53.712Z,9.75
2018-04-19T18:57:26.575Z,8.00
2018-04-19T19:00:07.892Z,9.75
2018-04-19T19:02:41.243Z,10.00
2018-04-19T19:05:13.392Z,8.75
2018-04-19T19:07:45.302Z,10.00
2018-04-19T19:10:18.642Z,9.00
2018-04-19T19:12:50.223Z,15.25
2018-04-19T19:15:29.079Z,19.00
2018-04-19T19:22:41.630Z,14.00
2018-04-19T19:25:19.412Z,16.50
2018-04-19T19:27:56.075Z,18.50
2018-04-19T19:30:32.719Z,15.25
2018-04-19T19:33:08.880Z,17.25
2018-04-19T19:35:41.570Z,18.50
2018-04-19T19:38:14.619Z,30.00
2018-04-19T19:40:47.471Z,14.50
2018-04-19T19:43:22.447Z,16.25
2018-04-19T19:45:58.065Z,14.75
2018-04-19T19:48:30.904Z,11.75
2018-04-19T19:51:05.184Z,12.50
2018-04-19T19:53:54.428Z,16.50
2018-04-19T19:56:30.940Z,16.25
2018-04-19T19:59:23.440Z,19.25
2018-04-19T20:01:58.187Z,17.25
2018-04-19T20:04:29.615Z,17.25
2018-04-19T20:07:03.618Z,16.50
2018-04-19T20:09:36.055Z,18.50
2018-04-19T20:12:08.681Z,20.75
2018-04-19T20:14:40.638Z,14.75
2018-04-19T20:17:20.877Z,15.00
2018-04-19T20:20:43.806Z,20.75
2018-04-19T20:23:17.446Z,21.50
2018-04-19T20:25:50.319Z,14.50
2018-04-19T20:28:22.189Z,11.75
2018-04-19T20:30:54.914Z,11.75
2018-04-19T20:33:26.885Z,14.00
2018-04-19T20:35:58.473Z,12.75
2018-04-19T20:38:31.280Z,17.75
2018-04-19T20:41:03.452Z,17.75
2018-04-19T20:43:35.834Z,14.00
2018-04-19T20:46:08.709Z,13.00
2018-04-19T20:48:40.597Z,15.50
2018-04-19T20:51:12.397Z,13.25
2018-04-19T20:53:46.942Z,24.25
2018-04-19T20:56:19.733Z,20.00
2018-04-19T20:58:52.186Z,14.00
2018-04-19T21:01:23.794Z,12.25
2018-04-19T21:03:57.215Z,11.75
2018-04-19T21:06:29.014Z,14.00
2018-04-19T21:09:00.595Z,14.25
2018-04-19T21:11:32.464Z,15.75
2018-04-19T21:14:03.864Z,13.50
2018-04-19T21:16:36.054Z,12.75
2018-04-19T21:19:15.043Z,13.25
2018-04-19T21:21:47.579Z,13.00
2018-04-19T21:24:22.756Z,12.00
2018-04-19T21:29:43.075Z,12.00
2018-04-19T21:32:19.361Z,12.75
2018-04-19T21:34:55.514Z,13.00
2018-04-19T21:37:27.187Z,12.00
2018-04-19T21:39:59.809Z,13.00
2018-04-19T21:42:32.064Z,12.75
2018-04-19T21:45:06.279Z,10.75
2018-04-19T21:47:38.258Z,14.00
2018-04-19T21:50:09.719Z,14.00
2018-04-19T21:52:48.250Z,10.50
2018-04-19T21:55:20.791Z,12.00
2018-04-19T21:57:52.301Z,11.50
2018-04-19T22:00:23.909Z,11.25
2018-04-19T22:02:58.200Z,11.25
2018-04-19T22:05:33.390Z,12.00
2018-04-19T22:08:06.142Z,10.50
2018-04-19T22:10:41.062Z,11.00
2018-04-19T22:13:14.712Z,11.00
2018-04-19T22:15:47.897Z,10.50
2018-04-19T22:18:21.997Z,10.75
2018-04-19T22:23:35.861Z,10.00
2018-04-19T22:26:08.007Z,11.00
2018-04-19T22:28:40.090Z,10.00
2018-04-19T22:31:15.011Z,10.50
2018-04-19T22:33:49.592Z,9.50
2018-04-19T22:36:26.475Z,9.75
2018-04-19T22:38:58.705Z,10.25
2018-04-19T22:41:31.657Z,11.00
2018-04-19T22:44:03.549Z,11.00
2018-04-19T22:46:37.647Z,11.50
2018-04-19T22:49:09.159Z,11.00
2018-04-19T22:51:42.706Z,10.00
2018-04-19T22:56:54.340Z,11.75
2018-04-19T22:59:26.051Z,11.00
2018-04-19T23:02:00.697Z,9.00
2018-04-19T23:04:36.625Z,10.00
2018-04-19T23:07:09.600Z,9.50
2018-04-19T23:09:41.210Z,9.25
2018-04-19T23:12:15.296Z,10.00
2018-04-19T23:14:47.326Z,9.50
2018-04-19T23:17:20.858Z,9.00
2018-04-19T23:19:52.224Z,8.00
2018-04-19T23:22:32.410Z,8.00
2018-04-19T23:25:03.971Z,8.25
2018-04-19T23:27:35.509Z,8.25
2018-04-19T23:30:14.111Z,8.00
2018-04-19T23:32:45.777Z,8.00
2018-04-19T23:38:08.619Z,8.50
2018-04-19T23:40:46.883Z,8.50
2018-04-19T23:43:19.359Z,9.50
2018-04-19T23:45:55.522Z,9.00
2018-04-19T23:48:27.859Z,9.00
2018-04-19T23:50:59.204Z,9.00
2018-04-19T23:53:30.841Z,8.00
2018-04-19T23:56:08.321Z,9.00
2018-04-19T23:58:40.365Z,8.00
